createdAt,value
2023-02-04T00:02:36.127Z,9.10
2023-02-04T00:09:18.507Z,9.00
2023-02-04T00:16:01.084Z,8.90
2023-02-04T00:22:43.351Z,8.90
2023-02-04T00:29:25.632Z,8.80
2023-02-04T00:36:08.540Z,8.80
2023-02-04T00:42:50.905Z,8.90
2023-02-04T00:49:36.298Z,8.90
2023-02-04T00:56:18.598Z,8.90
2023-02-04T01:03:00.932Z,8.90
2023-02-04T01:09:43.388Z,8.90
2023-02-04T01:16:26.145Z,8.80
2023-02-04T01:23:09.076Z,8.60
2023-02-04T01:29:56.071Z,8.50
2023-02-04T01:36:40.223Z,8.40
2023-02-04T01:43:23.150Z,8.30
2023-02-04T01:50:06.401Z,8.40
2023-02-04T01:56:51.511Z,8.40
2023-02-04T02:03:33.890Z,8.40
2023-02-04T02:10:18.171Z,8.50
2023-02-04T02:17:09.864Z,8.40
2023-02-04T02:23:57.368Z,8.50
2023-02-04T02:30:42.012Z,8.50
2023-02-04T02:37:24.629Z,8.50
2023-02-04T02:44:07.246Z,8.50
2023-02-04T02:50:49.866Z,8.40
2023-02-04T02:57:32.193Z,8.30
2023-02-04T03:04:16.503Z,8.30
2023-02-04T03:10:58.927Z,8.20
2023-02-04T03:17:42.981Z,8.30
2023-02-04T03:24:25.981Z,8.30
2023-02-04T03:31:08.811Z,8.20
2023-02-04T03:37:51.355Z,8.20
2023-02-04T03:44:33.670Z,8.10
2023-02-04T03:51:15.973Z,8.10
2023-02-04T03:57:58.249Z,8.10
2023-02-04T04:04:40.522Z,8.10
2023-02-04T04:11:23.026Z,8.00
2023-02-04T04:18:05.649Z,8.00
2023-02-04T04:24:47.998Z,8.00
2023-02-04T04:31:30.455Z,8.00
2023-02-04T04:38:12.786Z,8.00
2023-02-04T04:44:55.068Z,7.90
2023-02-04T04:51:37.405Z,7.90
2023-02-04T04:58:19.707Z,7.70
2023-02-04T05:05:02.037Z,7.70
2023-02-04T05:11:44.549Z,7.60
2023-02-04T05:18:26.821Z,7.60
2023-02-04T05:25:09.414Z,7.50
2023-02-04T05:31:51.737Z,7.50
2023-02-04T05:38:34.017Z,7.40
2023-02-04T05:45:18.902Z,7.40
2023-02-04T05:52:01.241Z,7.40
2023-02-04T05:58:43.616Z,7.50
2023-02-04T06:05:25.992Z,7.50
2023-02-04T06:12:08.580Z,7.40
2023-02-04T06:18:51.097Z,7.30
2023-02-04T06:25:33.392Z,7.20
2023-02-04T06:32:15.928Z,7.20
2023-02-04T06:38:58.209Z,7.00
2023-02-04T06:45:40.465Z,7.00
2023-02-04T06:52:22.961Z,7.00
2023-02-04T06:59:05.452Z,7.10
2023-02-04T07:05:47.771Z,7.10
2023-02-04T07:12:30.114Z,7.10
2023-02-04T07:19:12.595Z,7.20
2023-02-04T07:25:57.292Z,7.20
2023-02-04T07:32:39.728Z,7.20
2023-02-04T07:39:22.030Z,7.20
2023-02-04T07:46:04.475Z,7.10
2023-02-04T07:52:46.786Z,7.10
2023-02-04T07:59:29.124Z,7.10
2023-02-04T08:06:11.911Z,7.20
2023-02-04T08:12:54.215Z,7.30
2023-02-04T08:19:36.505Z,7.40
2023-02-04T08:26:18.850Z,7.50
2023-02-04T08:33:01.354Z,7.70
2023-02-04T08:39:46.161Z,7.90
2023-02-04T08:46:28.473Z,7.90
2023-02-04T08:53:10.849Z,7.90
2023-02-04T08:59:53.107Z,8.00
2023-02-04T09:06:35.433Z,8.20
2023-02-04T09:13:17.753Z,8.10
2023-02-04T09:20:01.198Z,8.30
2023-02-04T09:26:43.460Z,8.70
2023-02-04T09:33:25.862Z,10.40
2023-02-04T09:40:10.936Z,11.30
2023-02-04T09:46:56.772Z,11.20
2023-02-04T09:53:39.239Z,14.90
2023-02-04T10:00:24.716Z,15.70
2023-02-04T10:07:12.071Z,14.60
2023-02-04T10:13:56.198Z,12.40
2023-02-04T10:20:38.515Z,11.20
2023-02-04T10:27:20.904Z,10.00
2023-02-04T10:34:07.250Z,9.70
2023-02-04T10:41:01.094Z,9.60
2023-02-04T10:47:51.256Z,9.80
2023-02-04T10:54:38.161Z,11.70
2023-02-04T11:01:20.478Z,11.00
2023-02-04T11:08:16.830Z,10.50
2023-02-04T11:14:59.137Z,10.30
2023-02-04T11:21:44.707Z,10.40
2023-02-04T11:28:27.093Z,10.60
2023-02-04T11:35:12.792Z,10.40
2023-02-04T11:41:55.412Z,10.00
2023-02-04T11:48:37.802Z,9.80
2023-02-04T11:55:21.409Z,9.70
2023-02-04T12:02:19.275Z,9.80
2023-02-04T12:09:16.695Z,9.90
2023-02-04T12:16:02.275Z,9.80
2023-02-04T12:22:44.606Z,9.60
2023-02-04T12:29:26.953Z,9.80
2023-02-04T12:36:09.429Z,10.00
2023-02-04T12:42:52.126Z,10.10
2023-02-04T12:49:34.434Z,10.20
2023-02-04T12:56:16.959Z,9.90
2023-02-04T13:02:59.295Z,9.30
2023-02-04T13:09:41.840Z,9.40
2023-02-04T13:16:24.797Z,10.00
2023-02-04T13:23:07.141Z,9.80
2023-02-04T13:29:49.569Z,10.20
2023-02-04T13:36:32.133Z,9.60
2023-02-04T13:43:14.530Z,9.10
2023-02-04T13:49:56.861Z,9.50
2023-02-04T13:56:40.993Z,9.50
2023-02-04T14:03:24.986Z,9.30
2023-02-04T14:10:08.118Z,9.10
2023-02-04T14:16:50.443Z,9.20
2023-02-04T14:23:32.757Z,9.70
2023-02-04T14:30:23.660Z,9.80
2023-02-04T14:37:06.021Z,9.40
2023-02-04T14:43:48.632Z,9.30
2023-02-04T14:50:31.184Z,9.50
2023-02-04T14:57:13.749Z,9.30
2023-02-04T15:03:56.076Z,9.20
2023-02-04T15:10:38.399Z,9.30
2023-02-04T15:17:20.984Z,9.20
2023-02-04T15:24:03.318Z,9.20
2023-02-04T15:30:45.693Z,8.90
2023-02-04T15:37:28.164Z,8.80
2023-02-04T15:44:12.049Z,8.50
2023-02-04T15:50:54.837Z,8.20
2023-02-04T15:57:37.263Z,8.00
2023-02-04T16:04:20.917Z,7.90
2023-02-04T16:11:05.313Z,7.80
2023-02-04T16:17:48.287Z,7.60
2023-02-04T16:24:30.578Z,7.50
2023-02-04T16:31:13.875Z,7.50
2023-02-04T16:37:56.269Z,7.30
2023-02-04T16:44:38.780Z,7.20
2023-02-04T16:51:21.235Z,7.00
2023-02-04T16:58:03.680Z,6.90
2023-02-04T17:04:46.025Z,6.70
2023-02-04T17:11:31.608Z,6.40
2023-02-04T17:18:14.104Z,6.50
2023-02-04T17:24:56.411Z,6.60
2023-02-04T17:31:39.627Z,6.10
2023-02-04T17:38:22.300Z,6.00
2023-02-04T17:45:04.928Z,5.90
2023-02-04T17:51:47.218Z,5.80
2023-02-04T17:58:31.852Z,5.60
2023-02-04T18:05:17.525Z,5.70
2023-02-04T18:12:02.826Z,5.60
2023-02-04T18:18:45.101Z,5.60
2023-02-04T18:25:27.403Z,5.50
2023-02-04T18:32:15.766Z,5.40
2023-02-04T18:38:58.266Z,5.00
2023-02-04T18:45:40.890Z,5.00
2023-02-04T18:52:23.330Z,4.80
2023-02-04T18:59:13.345Z,4.50
2023-02-04T19:05:59.071Z,4.10
2023-02-04T19:12:41.565Z,4.10
2023-02-04T19:19:53.291Z,4.00
2023-02-04T19:27:01.232Z,3.90
2023-02-04T19:33:45.383Z,3.70
2023-02-04T19:40:29.559Z,3.50
2023-02-04T19:47:24.099Z,3.50
2023-02-04T19:54:19.777Z,3.50
2023-02-04T20:01:04.846Z,3.50
2023-02-04T20:07:47.224Z,3.40
2023-02-04T20:14:49.190Z,3.40
2023-02-04T20:21:32.672Z,3.30
2023-02-04T20:28:26.537Z,3.20
2023-02-04T20:35:20.542Z,3.20
2023-02-04T20:42:44.025Z,3.10
2023-02-04T20:49:26.393Z,2.90
2023-02-04T20:56:32.116Z,2.80
2023-02-04T21:03:36.068Z,2.70
2023-02-04T21:10:18.360Z,2.60
2023-02-04T21:17:00.891Z,2.40
2023-02-04T21:23:43.289Z,2.30
2023-02-04T21:30:29.921Z,2.30
2023-02-04T21:37:12.194Z,2.10
2023-02-04T21:43:55.587Z,2.10
2023-02-04T21:50:38.693Z,2.20
2023-02-04T21:57:21.130Z,2.10
2023-02-04T22:04:03.416Z,2.20
2023-02-04T22:10:45.724Z,2.20
2023-02-04T22:17:28.047Z,2.40
2023-02-04T22:24:10.333Z,2.40
2023-02-04T22:30:54.204Z,2.30
2023-02-04T22:37:38.552Z,2.50
2023-02-04T22:44:20.922Z,2.50
2023-02-04T22:51:03.680Z,2.60
2023-02-04T22:57:46.120Z,2.50
2023-02-04T23:04:28.469Z,2.50
2023-02-04T23:11:11.834Z,2.70
2023-02-04T23:17:54.104Z,3.00
2023-02-04T23:24:37.473Z,3.00
2023-02-04T23:31:19.898Z,2.90
2023-02-04T23:38:02.845Z,2.90
2023-02-04T23:44:45.401Z,3.00
2023-02-04T23:51:27.819Z,3.20
2023-02-04T23:58:10.313Z,3.20
